Airports

 


Airport Name Latest METAR Visual Conditions
Cincinnati/Northern Kentucky International (CVG) KCVG 290152Z 20006KT 10SM BKN100 OVC120 24/17 A2993 RMK AO2 SLP124 BINOVC T02390167 VFR
John Glenn Columbus International (CMH) KCMH 290151Z 19005KT 10SM BKN120 BKN140 26/16 A2992 RMK AO2 SLP125 T02560161 VFR
Yeager (CRW) KCRW 290228Z 16005KT 8SM -RA FEW008 BKN048 OVC090 21/19 A3000 RMK AO2 LTG DSNT NE TSE22 CB DSNT NE-E P0005 T02060194 VFR
James M Cox Dayton International (DAY) KDAY 290156Z 20006KT 10SM SCT110 BKN130 25/16 A2993 RMK AO2 SLP126 T02500161 VFR
Evansville Regional (EVV) KEVV 290154Z 18004KT 10SM CLR 22/17 A2992 RMK AO2 SLP128 T02220172 VFR
Indianapolis International (IND) KIND 290221Z 14007KT 10SM -RA SCT065 BKN110 OVC160 20/18 A2992 RMK AO2 LTG DSNT E TSE19 OCNL LTGIC DSNT NE-E CB DSNT NE-E MOV NE P0001 T02000183 VFR
Blue Grass (LEX) KLEX 290154Z 16005KT 10SM FEW110 21/17 A2996 RMK AO2 SLP137 T02110167 VFR
Louisville Muhammad Ali International (SDF) KSDF 290156Z 19006KT 10SM FEW055 FEW085 BKN250 25/18 A2993 RMK AO2 SLP129 ONCL LTGIC DSNT SW CB DSNT SW T02500183 VFR
Anderson Municipal-Darlington Field (AID) KAID 290235Z AUTO 16003KT 7SM -RA SCT047 BKN060 OVC090 19/18 A2993 RMK AO2 P0003 T01900180 VFR
Columbus Municipal (BAK) KBAK 290145Z 27015G27KT 8SM -TSRA SCT040 BKN070CB OVC080 22/15 A2993 RMK OCNL LTGCCCG TS NW MOVG SE LAST VFR
Monroe County (BMG) KBMG 290153Z AUTO 15003KT 10SM BKN100 19/17 A2993 RMK AO2 RAE50 TSE22 SLP129 P0007 T01890172 VFR
Wright-Patterson Air Force Base (FFO) KFFO 290156Z AUTO 21003KT 10SM OVC110 23/16 A2991 RMK AO2 RAB30E40 SLP126 P0000 T02340157 VFR
Godman Army Airfield (FTK) KFTK 290232Z AUTO 17004KT 10SM FEW070 BKN120 22/20 A2996 RMK AO2 LTG DSNT S SLP143 $ VFR
Himsel Army Airfield (HBE) No weather for this Airport Unknown
Tri-State/Milton J Ferguson Field (HTS) KHTS 290151Z 09003KT 10SM BKN110 21/19 A2996 RMK AO2 RAB0058E24 SLP138 P0001 T02110194 VFR
Terre Haute Regional (HUF) KHUF 290153Z AUTO 20004KT 10SM CLR 21/19 A2991 RMK AO2 SLP123 T02110189 VFR
Wilmington Air Park (ILN) KILN 290154Z AUTO 19004KT 10SM BKN120 23/17 A2993 RMK AO2 SLP126 T02280172 VFR
Rickenbacker International (LCK) KLCK 290155Z AUTO 18003KT -RA OVC110 24/17 A2992 RMK AO2 T02390165 VFR
Bowman Field (LOU) KLOU 290153Z AUTO 19007KT 10SM CLR 24/17 A2993 RMK AO2 SLP129 T02440172 VFR
Cincinnati Municipal Airport Lunken Field (LUK) KLUK 290153Z 20004KT 10SM BKN120 23/18 A2992 RMK AO2 SLP128 T02280183 VFR
Delaware County Regional (MIE) KMIE 290153Z 26009KT 10SM SCT042 SCT055 OVC110 22/17 A2993 RMK AO2 WSHFT 0121 SLP124 T02170167 VFR
Ohio State University (OSU) KOSU 290153Z 19003KT 10SM BKN110 25/16 A2992 RMK AO2 SLP126 T02500156 VFR
Owensboro-Daviess County Regional (OWB) KOWB 290156Z 22004KT 10SM CLR 23/18 A2993 RMK AO2 SLP132 T02330183 VFR
Mid-Ohio Valley Regional (PKB) KPKB 290153Z 00000KT 10SM CLR 23/19 A2994 RMK AO2 SLP132 T02280194 VFR
Bolton Field (TZR) KTZR 290235Z AUTO 18003KT 10SM OVC110 23/18 A2994 RMK AO2 T02300176 VFR
Middlesboro-Bell County (1A6) K1A6 290235Z AUTO 00000KT 10SM CLR 21/20 A3004 RMK AO2 T02050198 VFR
Georgetown-Scott County Regional (27K) K27K 281735Z AUTO 19008KT 10SM SCT038 25/16 A3001 RMK AO1 VFR
Madisonville Regional (2I0) K2I0 290235Z AUTO 00000KT 10SM BKN050 BKN065 22/17 A2996 RMK AO2 T02160166 VFR
Mason County (3I2) K3I2 290235Z AUTO 00000KT 7SM -RA SCT003 SCT008 SCT015 21/21 A2997 RMK AO2 T02110208 VFR
Knox County (4I3) K4I3 290235Z AUTO 18004KT 10SM CLR 22/16 A2996 RMK AO2 VFR
Lebanon Springfield-George Hoerter Field (6I2) K6I2 290225Z AUTO 16005KT 10SM FEW100 22/20 A2997 RMK AO2 VFR
Logan County (6L4) K6L4 290235Z AUTO 00000KT 10SM OVC110 20/20 A3004 RMK AO2 VFR
Livingston Municipal (8A3) K8A3 290235Z AUTO 19006KT 10SM BKN036 BKN044 BKN050 22/17 A3002 RMK A01 VFR
Kee Field (I16) KI16 290235Z AUTO 7SM SCT065 BKN075 BKN120 21/20 A3010 RMK AO2 T02050202 VFR
Greene County-Lewis A Jackson Regional (I19) KI19 290235Z AUTO 21003KT 10SM SCT120 23/16 A2994 RMK AO2 T02320155 VFR
Fayette County (I23) KI23 290236Z AUTO 17005KT 10SM CLR 23/17 A2994 RMK AO1 VFR
Tucker-Guthrie Memorial (I35) KI35 290235Z AUTO 18003KT 10SM BKN120 23/18 A3004 RMK AO2 T02260177 VFR
James A Rhodes (I43) KI43 281755Z AUTO 22008KT 10SM SCT037 SCT043 SCT050 27/18 A3000 RMK AO2 VFR
Cincinnati West (I67) KI67 290235Z AUTO 00000KT 10SM SCT100 SCT120 22/17 A2992 RMK AO1 VFR
Clermont County (I69) KI69 290236Z AUTO 20003KT 10SM SCT110 23/18 A2994 RMK AO2 T02320175 VFR
Grimes Field (I74) KI74 290235Z AUTO 00000KT 10SM SCT110 22/17 A2993 RMK AO2 VFR
Hancock Co-Ron Lewis Field (KY8) KKY8 290235Z AUTO 18003KT 10SM SCT110 21/21 A2994 RMK A01 VFR
Brazil Clay County (0I2) No weather for this Airport Unknown
Cynthiana-Harrison County (0I8) No weather for this Airport Unknown
Holmes County (10G) No weather for this Airport Unknown
Ona Airpark (12V) No weather for this Airport Unknown
Mc Creary County (18I) No weather for this Airport Unknown
Casey Municipal (1H8) No weather for this Airport Unknown
Jamestown Municipal (2A1) No weather for this Airport Unknown
Hendricks County-Gordon Graham Fld (2R2) No weather for this Airport Unknown
Sky King (3I3) No weather for this Airport Unknown
Dayton-Phillipsburg (3I7) No weather for this Airport Unknown
Morrow County (4I9) No weather for this Airport Unknown
Sheridan (5I4) No weather for this Airport Unknown
Indianapolis Downtown (8A4) No weather for this Airport Unknown
Piqua Airport- Hartzell Field (I17) No weather for this Airport Unknown
Jackson County (I18) No weather for this Airport Unknown
Randolph County (I22) No weather for this Airport Unknown
Greensburg Municipalcipal (I34) No weather for this Airport Unknown
Richard Downing (I40) No weather for this Airport Unknown
Clinton Field (I66) No weather for this Airport Unknown
Warren County/John Lane Field (I68) No weather for this Airport Unknown
Perry County (I86) No weather for this Airport Unknown
Breckinridge County (I93) No weather for this Airport Unknown
Hardin County (I95) No weather for this Airport Unknown
Russell County (K24) No weather for this Airport Unknown
Gene Snyder (K62) No weather for this Airport Unknown
Leitchfield-Grayson Co (M20) No weather for this Airport Unknown
Taylor County (AAS) KAAS 290235Z AUTO 14003KT 10SM SCT090 22/18 A3002 RMK AO1 VFR
Mount Carmel Municipal (AJG) KAJG 290235Z AUTO 14004KT 10SM CLR 21/19 A2992 RMK AO2 T02070190 VFR
Alexander Salamon (AMT) No weather for this Airport Unknown
Lima Allen County (AOH) No weather for this Airport Unknown
Neil Armstrong (AXV) KAXV 290236Z AUTO 19004KT 7SM CLR 21/17 A2992 RMK AO2 VFR
Virgil I Grissom Municipal (BFR) No weather for this Airport Unknown
Raleigh County Memorial (BKW) KBKW 290202Z AUTO 22009G16KT 3SM -RA BR SCT027 BKN041 OVC120 19/18 A3009 RMK AO2 VIS 1 RWY19 P0012 T01940178 MVFR
Mercer County (BLF) KBLF 290152Z AUTO 00000KT 10SM FEW024 SCT029 BKN038 20/17 A3011 RMK AO2 SLP163 T02000172 VFR
Samuels Field (BRY) KBRY 290235Z AUTO 00000KT 10SM CLR 21/18 A2995 RMK AO1 VFR
Williamsburg-Whitley County (BYL) KBYL 290235Z AUTO 00000KT 10SM FEW038 SCT070 19/19 A3003 RMK AO1 VFR
Mettel Field (CEV) No weather for this Airport Unknown
Crawfordsville Regional (CFJ) KCFJ 290235Z AUTO 18004KT 10SM OVC120 19/17 A2991 RMK AO2 T01860170 VFR
Wendell H Ford (CPF) No weather for this Airport Unknown
Lakefield (CQA) No weather for this Airport Unknown
Carmi Municipal (CUL) No weather for this Airport Unknown
Pickaway County Memorial (CYO) No weather for this Airport Unknown
Daviess County (DCY) KDCY 290235Z AUTO 00000KT 10SM CLR 20/20 A2993 RMK AO2 T01990197 VFR
Delaware Municipal - Jim Moore Field (DLZ) No weather for this Airport Unknown
Stuart Powell Field (DVK) KDVK 290230Z AUTO 19005KT 10SM CLR 20/17 A2999 RMK AO2 VFR
Ashland Regional (DWU) No weather for this Airport Unknown
Appalachian Regional (EBD) No weather for this Airport Unknown
Bellefontaine Regional (EDJ) No weather for this Airport Unknown
Henderson City-County (EHR) KEHR 290156Z AUTO 19003KT 10SM CLR 22/18 A2992 RMK AO2 SLP130 T02170183 VFR
Wayne County (EKQ) No weather for this Airport Unknown
Addington Field (EKX) No weather for this Airport Unknown
Pike County (EOP) No weather for this Airport Unknown
Eagle Creek Airpark (EYE) No weather for this Airport Unknown
Capital City (FFT) No weather for this Airport Unknown
Fleming-Mason (FGX) KFGX 290235Z AUTO 19004KT 10SM SCT090 22/18 A2997 RMK AO2 T02200177 VFR
French Lick Municipal (FRH) No weather for this Airport Unknown
Gallia-Meigs Regional (GAS) No weather for this Airport Unknown
Brown County (GEO) No weather for this Airport Unknown
Shelbyville Municipal (GEZ) No weather for this Airport Unknown
Putnam County Regional (GPC) KGPC 290235Z AUTO 16005KT 10SM BKN120 19/19 A2992 RMK AO2 T01910185 VFR
Butler Co Regional-Hogan Field (HAO) No weather for this Airport Unknown
Indy South Greenwood (HFY) KHFY 282335Z AUTO 17014G19KT 10SM SCT045 BKN060 25/18 A2989 RMK AO2 T02480175 VFR
Huntingburg (HNB) KHNB 290156Z AUTO 00000KT 10SM SCT045 SCT120 19/19 A2993 RMK AO2 LTG DSNT NE SLP132 T01940194 VFR
Highland County (HOC) No weather for this Airport Unknown
Madison Municipal (IMS) No weather for this Airport Unknown
Mount Sterling-Montgomery County (IOB) KIOB 290235Z AUTO 21004KT 10SM SCT110 22/18 A2999 RMK AO2 PWINO VFR
Julian Carroll (JKL) No weather for this Airport Unknown
Ohio County (JQD) No weather for this Airport Unknown
Clark Regional (JVY) KJVY 290235Z AUTO 00000KT 10SM CLR 21/20 A2993 RMK AO2 T02100197 VFR
Fairfield County (LHQ) KLHQ 290153Z AUTO 11003KT 10SM BKN110 22/20 A2994 RMK AO2 SLP131 T02220200 VFR
Lonesome Pine (LNP) No weather for this Airport Unknown
London-Corbin Arpt-Magee Field (LOZ) KLOZ 290237Z AUTO 31003KT 3SM -RA BR BKN034 BKN050 OVC065 19/17 A3002 RMK AO2 RAB22 P0020 T01890167 MVFR
Lawrenceville-Vincennes International (LWV) No weather for this Airport Unknown
Dayton-Wright Brothers (MGY) KMGY 290153Z AUTO 18004KT 10SM SCT120 23/17 A2992 RMK AO2 SLP124 T02330167 VFR
Indianapolis Regional (MQJ) No weather for this Airport Unknown
Union County (MRT) KMRT 290219Z AUTO 20004KT 10SM CLR 22/16 A2993 RMK AO1 VFR
Middletown Regional/Hook Field (MWO) KMWO 290235Z AUTO 00000KT 10SM SCT110 21/20 A2993 RMK AO2 T02070197 VFR
North Vernon (OVO) No weather for this Airport Unknown
Miami University (OXD) KOXD 290215Z AUTO 19004KT 10SM BKN110 23/20 A2994 RMK AO2 T02280203 VFR
Pike County-Hatcher Field (PBX) KPBX 290235Z AUTO 14003KT 10SM SCT065 21/21 A3002 RMK AO2 T02060206 VFR
Greater Portsmouth Regional (PMH) KPMH 290236Z AUTO 16003KT 10SM OVC090 21/19 A2997 RMK AO2 T02130191 VFR
Edgar County (PRG) No weather for this Airport Unknown
Central Kentucky Regional (RGA) KRGA 290235Z AUTO 18005KT 10SM SCT095 21/18 A2998 RMK AO2 VFR
Richmond Municipal (RID) KRID 290235Z AUTO 20004KT 10SM SCT120 20/20 A2994 RMK AO2 VFR
Crawford Co (RSV) KRSV 290235Z AUTO 00000KT 10SM CLR 19/18 A2992 RMK AO2 T01860177 VFR
Ross County (RZT) KRZT 290235Z AUTO 00000KT 10SM OVC120 22/19 A2994 RMK AO2 PWINO VFR
Sidney Municipal (SCA) No weather for this Airport Unknown
Scott Municipal (SCX) KSCX 290235Z AUTO 23003KT 10SM CLR 20/18 A3004 RMK A01 VFR
Freeman Municipal (SER) No weather for this Airport Unknown
Springfield-Beckley Municipal (SGH) No weather for this Airport Unknown
Sullivan County (SIV) No weather for this Airport Unknown
Big Sandy Regional (SJS) KSJS 290235Z AUTO 00000KT 10SM SCT060 20/20 A3002 RMK AO2 T02020202 VFR
Lake Cumberland Regional (SME) No weather for this Airport Unknown
Summersville (SXL) No weather for this Airport Unknown
Morehead-Rowan County Clyde A Thomas Regional (SYM) KSYM 290240Z AUTO 17004KT 10SM FEW085 21/17 A2999 RMK AO2 VFR
Perry County Municipal (TEL) No weather for this Airport Unknown
Sturgis Municipal (TWT) No weather for this Airport Unknown
Indianapolis Executive (TYQ) KTYQ 290235Z AUTO 17004KT 10SM CLR 18/18 A2993 RMK AO2 T01800180 VFR
Indianapolis Metropolitan (UMP) No weather for this Airport Unknown
Ohio University (UNI) KUNI 290235Z AUTO 00000KT 10SM -RA OVC110 23/19 A2996 RMK AO2 LTG DSNT E T02260194 VFR
Boggs Field (USW) No weather for this Airport Unknown
New Castle Henry County Marlatt Field (UWL) No weather for this Airport Unknown
Madison County (UYF) KUYF 290235Z AUTO 19004KT 10SM BKN110 23/17 A2993 RMK AO2 VFR
Darke County (VES) KVES 290230Z AUTO 21003KT 10SM CLR 22/15 A2992 RMK AO2 VFR
Newark-Heath (VTA) KVTA 290154Z AUTO 00000KT 10SM CLR 23/18 A2993 RMK AO2 SLP129 T02280178 VFR
Zanesville Municipal (ZZV) KZZV 290153Z AUTO 20003KT 10SM CLR 22/17 A2995 RMK AO2 SLP135 T02220167 VFR
Red Stewart Airfield (40I) No weather for this Airport Unknown
Dahio Trotwood (I44) No weather for this Airport Unknown
Mad River Airpark (I54) No weather for this Airport Unknown
Moraine Air Park (I73) No weather for this Airport Unknown
Alexandria (I99) No weather for this Airport Unknown
Fry (0OH8) No weather for this Airport Unknown
Fayette County Memorial Hospital (11OH) No weather for this Airport Unknown
Uk Hospital (37KY) No weather for this Airport Unknown
Andy Barnhart Memorial (3OH0) No weather for this Airport Unknown
Medical Center Albany (45KY) No weather for this Airport Unknown
Westlake Regional Hospital (48KY) No weather for this Airport Unknown
Manchester Memorial Hospital (4KY2) No weather for this Airport Unknown
Bethesda Hospital Helistop (4OH2) No weather for this Airport Unknown
Appalachian Regional Hospital (51KY) No weather for this Airport Unknown
Bedford Medical Center (57IN) No weather for this Airport Unknown
Union Hospital (60II) No weather for this Airport Unknown
Skydive Greene County Inc (7OA7) No weather for this Airport Unknown
Methodist Hospital Of In Inc (81II) No weather for this Airport Unknown
Saint Joseph Hospital (88KY) No weather for this Airport Unknown
Riverside Methodist Hospital (9OI9) No weather for this Airport Unknown
Decatur County Memorial Hospital (IN35) No weather for this Airport Unknown
Reid Hospital (IN68) No weather for this Airport Unknown
Ball Memorial Hospital (IN74) No weather for this Airport Unknown
Iu Health Morgan (IN84) No weather for this Airport Unknown
Grant Medical Center (OH01) No weather for this Airport Unknown
Knox Communicipalty Hospital (OH04) No weather for this Airport Unknown
O'Bleness Memorial Hospital (OH23) No weather for this Airport Unknown
Schaney'S Lair (OH46) No weather for this Airport Unknown
Southern Ohio Regional Medical Center (OH62) No weather for this Airport Unknown
Troy Skypark (OH71) No weather for this Airport Unknown
Nationwide Children'S Hospital (OI95) No weather for this Airport Unknown